• Join FlightAware (Why Join?)
  • Login
  • US Flag 
09:14AM EST


 

Airport Tracker/Info


-or-


 

Live Flight TrackerFlight Track Log ✈ CSC8706 ✈ 15-Jun-2014 ✈ ZGSZ / SZX - ZUUU / CTU

Flight Track Log - Related Links

Times and Time Zones

All times are in EDT time to prevent confusion due to time zone crossing. See the CSC8706 flight status page for this flight to view local times or setup timezone preferences in your user account.

Time Position Orientation Groundspeed Altitude Reporting Facility
EDT Latitude Longitude Course Direction KTS MPH feet Rate Location/Type
07:39AM 23.0350 113.3685 314° West  Level Estimated
07:40AM 23.1008 113.2942 314° West  Level Estimated
07:41AM 23.1665 113.2199 314° West  Level Estimated
07:42AM 23.2323 113.1455 314° West  Level Estimated
07:43AM 23.2980 113.0711 314° West  Level Estimated
07:44AM 23.3636 112.9965 314° West  Level Estimated
07:45AM 23.4292 112.9219 314° West  Level Estimated
07:46AM 23.4948 112.8472 314° West  Level Estimated
07:47AM 23.5604 112.7725 314° West  Level Estimated
07:48AM 23.6259 112.6976 314° West  Level Estimated
07:49AM 23.6914 112.6227 314° West  Level Estimated
07:50AM 23.7568 112.5478 314° West  Level Estimated
07:51AM 23.8222 112.4727 314° West  Level Estimated
07:52AM 23.8876 112.3976 314° West  Level Estimated
07:53AM 23.9529 112.3224 314° West  Level Estimated
07:54AM 24.0182 112.2471 314° West  Level Estimated
07:55AM 24.0835 112.1717 313° West  Level Estimated
07:56AM 24.1487 112.0963 313° West  Level Estimated
07:57AM 24.2139 112.0208 313° West  Level Estimated
07:58AM 24.2791 111.9452 313° West  Level Estimated
07:59AM 24.3442 111.8695 313° West  Level Estimated
08:00AM 24.4092 111.7937 313° West  Level Estimated
08:01AM 24.4743 111.7179 313° West  Level Estimated
08:02AM 24.5393 111.6420 313° West  Level Estimated
08:03AM 24.6042 111.5660 313° West  Level Estimated
08:04AM 24.6692 111.4900 313° West  Level Estimated
08:05AM 24.7341 111.4138 313° West  Level Estimated
08:06AM 24.7989 111.3376 313° West  Level Estimated
08:07AM 24.8637 111.2613 313° West  Level Estimated
08:08AM 24.9285 111.1849 313° West  Level Estimated
08:09AM 24.9932 111.1085 313° West  Level Estimated
08:10AM 25.0579 111.0319 313° West  Level Estimated
08:11AM 25.1225 110.9553 313° West  Level Estimated
08:12AM 25.1872 110.8786 313° West  Level Estimated
08:13AM 25.2517 110.8018 313° West  Level Estimated
08:14AM 25.3163 110.7250 313° West  Level Estimated
08:15AM 25.3808 110.6480 313° West  Level Estimated
08:16AM 25.4452 110.5710 313° West  Level Estimated
08:17AM 25.5096 110.4939 313° West  Level Estimated
08:18AM 25.5740 110.4167 313° West  Level Estimated
08:19AM 25.6383 110.3394 313° West  Level Estimated
08:20AM 25.7026 110.2620 313° West  Level Estimated
08:21AM 25.7669 110.1846 313° West  Level Estimated
08:22AM 25.8311 110.1070 313° West  Level Estimated
08:23AM 25.8952 110.0294 313° West  Level Estimated
08:24AM 25.9594 109.9517 313° West  Level Estimated
08:25AM 26.0235 109.8740 313° West  Level Estimated
08:26AM 26.0875 109.7961 312° West  Level Estimated
08:27AM 26.1515 109.7181 312° West  Level Estimated
08:28AM 26.2155 109.6401 312° West  Level Estimated
08:29AM 26.2794 109.5620 312° West  Level Estimated
08:30AM 26.3433 109.4838 312° West  Level Estimated
08:31AM 26.4071 109.4055 312° West  Level Estimated
08:32AM 26.4709 109.3271 312° West  Level Estimated
08:33AM 26.5346 109.2486 312° West  Level Estimated
08:34AM 26.5983 109.1701 312° West  Level Estimated
08:35AM 26.6620 109.0914 312° West  Level Estimated
08:36AM 26.7256 109.0127 312° West  Level Estimated
08:37AM 26.7892 108.9339 312° West  Level Estimated
08:38AM 26.8527 108.8549 312° West  Level Estimated
08:39AM 26.9162 108.7759 312° West  Level Estimated
08:40AM 26.9796 108.6969 312° West  Level Estimated
08:41AM 27.0430 108.6177 312° West  Level Estimated
08:42AM 27.1064 108.5384 312° West  Level Estimated
08:43AM 27.1697 108.4591 312° West  Level Estimated
08:44AM 27.2330 108.3796 312° West  Level Estimated
08:45AM 27.2962 108.3001 312° West  Level Estimated
08:46AM 27.3594 108.2205 312° West  Level Estimated
08:47AM 27.4225 108.1407 312° West  Level Estimated
08:48AM 27.4856 108.0609 312° West  Level Estimated
08:49AM 27.5486 107.9810 312° West  Level Estimated
08:50AM 27.6116 107.9010 312° West  Level Estimated
08:51AM 27.6745 107.8210 312° West  Level Estimated
08:52AM 27.7374 107.7408 312° West  Level Estimated
08:53AM 27.8003 107.6605 312° West  Level Estimated
08:54AM 27.8631 107.5802 311° West  Level Estimated
08:55AM 27.9259 107.4997 311° West  Level Estimated
08:56AM 27.9886 107.4192 311° West  Level Estimated
08:57AM 28.0513 107.3385 311° West  Level Estimated
08:58AM 28.1139 107.2578 311° West  Level Estimated
08:59AM 28.1764 107.1769 311° West  Level Estimated
09:00AM 28.2390 107.0960 311° West  Level Estimated
09:01AM 28.3015 107.0150 311° West  Level Estimated
09:02AM 28.3639 106.9339 311° West  Level Estimated
09:03AM 28.4263 106.8527 311° West  Level Estimated
09:04AM 28.4886 106.7714 311° West  Level Estimated
09:05AM 28.5509 106.6900 311° West  Level Estimated
09:06AM 28.6131 106.6085 311° West  Level Estimated
09:07AM 28.6753 106.5269 311° West  Level Estimated
09:08AM 28.7374 106.4452 311° West  Level Estimated
09:09AM 28.7995 106.3634 311° West  Level Estimated
09:10AM 28.8616 106.2815 311° West  Level Estimated
09:11AM 28.9236 106.1995 311° West  Level Estimated
09:12AM 28.9855 106.1174 311° West  Level Estimated
09:13AM 29.0474 106.0353 311° West  Level Estimated
09:14AM 29.1092 105.9530 311° West  Level Estimated
09:15AM 29.1710 105.8706 311° West  Level Estimated
09:16AM 29.2328 105.7881 311° West  Level Estimated
09:17AM 29.2945 105.7056 311° West  Level Estimated
09:18AM 29.3561 105.6229 311° West  Level Estimated
09:19AM 29.4177 105.5401 311° West  Level Estimated
09:20AM 29.4792 105.4572 310° West  Level Estimated
09:21AM 29.5407 105.3743 310° West  Level Estimated
09:22AM 29.6021 105.2912 310° West  Level Estimated
09:23AM 29.6635 105.2080 310° West  Level Estimated
09:24AM 29.7248 105.1247 310° West  Level Estimated
09:25AM 29.7861 105.0413 310° West  Level Estimated
09:26AM 29.8473 104.9578 310° West  Level Estimated
09:27AM 29.9085 104.8743 310° West  Level Estimated
09:28AM 29.9697 104.7906 310° West  Level Estimated
09:29AM 30.0307 104.7068 310° West  Level Estimated
09:30AM 30.0917 104.6229 310° West  Level Estimated
09:31AM 30.1527 104.5389 310° West  Level Estimated
09:32AM 30.2136 104.4548 310° West  Level Estimated
09:33AM 30.2745 104.3706 310° West  Level Estimated
09:34AM 30.3353 104.2863 310° West  Level Estimated
09:35AM 30.3960 104.2019 310° West  Level Estimated
09:36AM 30.4567 104.1173 310° West  Level Estimated
09:37AM 30.5173 104.0327 310° West  Level Estimated
09:38AM 30.5779 103.9480 310° West  Level Estimated
09:39AM 30.5785 103.9471 310° West  Level Estimated
09:40AM 30.5785 103.9471 North  Level Estimated
09:41AM 30.5785 103.9471 North  Level Estimated
09:42AM 30.5785 103.9471 North  Level Estimated
09:43AM 30.5785 103.9471 North  Level Estimated
09:44AM 30.5785 103.9471 North  Level Estimated
09:45AM 30.5785 103.9471 North  Level Estimated
09:46AM 30.5785 103.9471 North  Level Estimated
09:47AM 30.5785 103.9471 North  Level Estimated
09:48AM 30.5785 103.9471 North  Level Estimated
09:49AM 30.5785 103.9471 North  Level Estimated
09:50AM 30.5785 103.9471 North  Level Estimated
09:51AM 30.5785 103.9471 North  Level Estimated
09:52AM 30.5785 103.9471 North  Level Estimated
09:53AM 30.5785 103.9471 North  Level Estimated
09:54AM 30.5785 103.9471 North  Level Estimated